sensor_id;sensor_type;location;lat;lon;timestamp;pressure;altitude;pressure_sealevel;temperature;humidity
58769;BME280;44536;47.474;19.056;2023-04-10T00:00:57;101258.03;;;3.15;100.00
58769;BME280;44536;47.474;19.056;2023-04-10T00:04:01;101258.78;;;3.18;100.00
58769;BME280;44536;47.474;19.056;2023-04-10T00:07:03;101251.78;;;3.19;100.00
58769;BME280;44536;47.474;19.056;2023-04-10T00:10:06;101245.59;;;3.21;100.00
58769;BME280;44536;47.474;19.056;2023-04-10T00:13:08;101250.13;;;3.16;100.00
58769;BME280;44536;47.474;19.056;2023-04-10T00:16:11;101241.44;;;3.14;100.00
58769;BME280;44536;47.474;19.056;2023-04-10T00:19:14;101236.16;;;3.16;100.00
58769;BME280;44536;47.474;19.056;2023-04-10T00:22:17;101235.34;;;3.14;100.00
58769;BME280;44536;47.474;19.056;2023-04-10T00:25:19;101231.94;;;3.12;100.00
58769;BME280;44536;47.474;19.056;2023-04-10T00:28:24;101231.41;;;3.01;100.00
58769;BME280;44536;47.474;19.056;2023-04-10T00:31:26;101230.59;;;2.98;100.00
58769;BME280;44536;47.474;19.056;2023-04-10T00:34:29;101221.97;;;2.95;100.00
58769;BME280;44536;47.474;19.056;2023-04-10T00:37:31;101229.78;;;2.96;100.00
58769;BME280;44536;47.474;19.056;2023-04-10T00:40:33;101228.94;;;2.96;100.00
58769;BME280;44536;47.474;19.056;2023-04-10T00:43:36;101232.56;;;2.92;100.00
58769;BME280;44536;47.474;19.056;2023-04-10T00:46:39;101226.47;;;2.91;100.00
58769;BME280;44536;47.474;19.056;2023-04-10T00:49:42;101225.59;;;2.91;100.00
58769;BME280;44536;47.474;19.056;2023-04-10T00:52:45;101218.66;;;2.90;100.00
58769;BME280;44536;47.474;19.056;2023-04-10T00:55:48;101220.44;;;2.88;100.00
58769;BME280;44536;47.474;19.056;2023-04-10T00:58:51;101215.12;;;2.91;100.00
58769;BME280;44536;47.474;19.056;2023-04-10T01:01:53;101213.94;;;3.01;100.00
58769;BME280;44536;47.474;19.056;2023-04-10T01:04:56;101214.75;;;3.03;100.00
58769;BME280;44536;47.474;19.056;2023-04-10T01:08:15;101220.91;;;3.02;100.00
58769;BME280;44536;47.474;19.056;2023-04-10T01:11:32;101212.28;;;2.98;100.00
58769;BME280;44536;47.474;19.056;2023-04-10T01:18:18;101206.34;;;2.92;100.00
58769;BME280;44536;47.474;19.056;2023-04-10T01:21:24;101213.37;;;2.91;100.00
58769;BME280;44536;47.474;19.056;2023-04-10T01:31:53;101212.97;;;3.04;100.00
58769;BME280;44536;47.474;19.056;2023-04-10T01:34:59;101210.66;;;2.94;100.00
58769;BME280;44536;47.474;19.056;2023-04-10T01:38:05;101206.53;;;2.86;100.00
58769;BME280;44536;47.474;19.056;2023-04-10T01:41:08;101207.69;;;2.77;100.00
58769;BME280;44536;47.474;19.056;2023-04-10T01:44:13;101201.62;;;2.75;100.00
58769;BME280;44536;47.474;19.056;2023-04-10T01:47:17;101204.34;;;2.72;100.00
58769;BME280;44536;47.474;19.056;2023-04-10T01:50:21;101203.53;;;2.70;100.00
58769;BME280;44536;47.474;19.056;2023-04-10T01:53:27;101211.47;;;2.67;100.00
58769;BME280;44536;47.474;19.056;2023-04-10T01:56:31;101205.56;;;2.60;100.00
58769;BME280;44536;47.474;19.056;2023-04-10T01:59:34;101205.38;;;2.66;100.00
58769;BME280;44536;47.474;19.056;2023-04-10T02:02:36;101206.41;;;2.61;100.00
58769;BME280;44536;47.474;19.056;2023-04-10T02:12:52;101202.44;;;2.49;100.00
58769;BME280;44536;47.474;19.056;2023-04-10T02:15:59;101201.66;;;2.46;100.00
58769;BME280;44536;47.474;19.056;2023-04-10T02:19:05;101211.53;;;2.36;100.00
58769;BME280;44536;47.474;19.056;2023-04-10T02:22:08;101212.47;;;2.33;100.00
58769;BME280;44536;47.474;19.056;2023-04-10T02:25:10;101204.66;;;2.32;100.00
58769;BME280;44536;47.474;19.056;2023-04-10T02:28:13;101205.53;;;2.32;100.00
58769;BME280;44536;47.474;19.056;2023-04-10T02:31:15;101208.22;;;2.29;100.00
58769;BME280;44536;47.474;19.056;2023-04-10T02:34:18;101200.34;;;2.31;100.00
58769;BME280;44536;47.474;19.056;2023-04-10T02:37:21;101204.72;;;2.30;100.00
58769;BME280;44536;47.474;19.056;2023-04-10T02:40:24;101197.84;;;2.26;100.00
58769;BME280;44536;47.474;19.056;2023-04-10T02:43:27;101193.69;;;2.19;100.00
58769;BME280;44536;47.474;19.056;2023-04-10T02:46:30;101193.66;;;2.21;100.00
58769;BME280;44536;47.474;19.056;2023-04-10T02:49:33;101192.06;;;2.15;100.00
58769;BME280;44536;47.474;19.056;2023-04-10T02:52:40;101186.91;;;2.12;100.00
58769;BME280;44536;47.474;19.056;2023-04-10T02:55:43;101180.81;;;2.12;100.00
58769;BME280;44536;47.474;19.056;2023-04-10T02:58:45;101175.66;;;2.09;100.00
58769;BME280;44536;47.474;19.056;2023-04-10T03:01:49;101177.34;;;2.11;100.00
58769;BME280;44536;47.474;19.056;2023-04-10T03:04:53;101174.59;;;2.16;100.00
58769;BME280;44536;47.474;19.056;2023-04-10T03:07:57;101173.78;;;2.14;100.00
58769;BME280;44536;47.474;19.056;2023-04-10T03:11:00;101173.75;;;2.15;100.00
58769;BME280;44536;47.474;19.056;2023-04-10T03:14:03;101168.38;;;2.20;100.00
58769;BME280;44536;47.474;19.056;2023-04-10T03:17:06;101177.91;;;2.22;100.00
58769;BME280;44536;47.474;19.056;2023-04-10T03:20:09;101173.88;;;2.11;100.00
58769;BME280;44536;47.474;19.056;2023-04-10T03:23:12;101180.78;;;2.13;100.00
58769;BME280;44536;47.474;19.056;2023-04-10T03:26:15;101176.03;;;1.96;100.00
58769;BME280;44536;47.474;19.056;2023-04-10T03:29:17;101177.88;;;1.93;100.00
58769;BME280;44536;47.474;19.056;2023-04-10T03:32:20;101177.84;;;1.94;100.00
58769;BME280;44536;47.474;19.056;2023-04-10T03:35:22;101185.06;;;2.16;100.00
58769;BME280;44536;47.474;19.056;2023-04-10T03:38:25;101175.87;;;2.03;100.00
58769;BME280;44536;47.474;19.056;2023-04-10T03:41:27;101187.47;;;1.92;100.00
58769;BME280;44536;47.474;19.056;2023-04-10T03:44:30;101172.78;;;1.88;100.00
58769;BME280;44536;47.474;19.056;2023-04-10T03:47:33;101178.88;;;1.89;100.00
58769;BME280;44536;47.474;19.056;2023-04-10T03:50:36;101184.19;;;1.86;100.00
58769;BME280;44536;47.474;19.056;2023-04-10T03:53:38;101187.84;;;1.79;100.00
58769;BME280;44536;47.474;19.056;2023-04-10T03:56:41;101185.31;;;1.76;100.00
58769;BME280;44536;47.474;19.056;2023-04-10T03:59:44;101186.84;;;1.84;100.00
58769;BME280;44536;47.474;19.056;2023-04-10T04:02:47;101187.56;;;1.89;100.00
58769;BME280;44536;47.474;19.056;2023-04-10T04:05:54;101198.06;;;1.88;100.00
58769;BME280;44536;47.474;19.056;2023-04-10T04:08:56;101190.22;;;1.88;100.00
58769;BME280;44536;47.474;19.056;2023-04-10T04:11:59;101191.03;;;1.90;100.00
58769;BME280;44536;47.474;19.056;2023-04-10T04:15:02;101189.06;;;1.98;100.00
58769;BME280;44536;47.474;19.056;2023-04-10T04:18:08;101191.47;;;2.06;100.00
58769;BME280;44536;47.474;19.056;2023-04-10T04:21:10;101199.19;;;2.10;100.00
58769;BME280;44536;47.474;19.056;2023-04-10T04:24:14;101199.56;;;2.27;100.00
58769;BME280;44536;47.474;19.056;2023-04-10T04:27:19;101207.81;;;2.73;100.00
58769;BME280;44536;47.474;19.056;2023-04-10T04:30:23;101210.97;;;2.84;100.00
58769;BME280;44536;47.474;19.056;2023-04-10T04:33:26;101211.38;;;2.99;100.00
58769;BME280;44536;47.474;19.056;2023-04-10T04:36:29;101209.47;;;3.05;100.00
58769;BME280;44536;47.474;19.056;2023-04-10T04:39:32;101216.41;;;3.06;100.00
58769;BME280;44536;47.474;19.056;2023-04-10T04:42:35;101210.16;;;3.10;100.00
58769;BME280;44536;47.474;19.056;2023-04-10T04:45:40;101201.12;;;3.18;100.00
58769;BME280;44536;47.474;19.056;2023-04-10T04:48:44;101211.41;;;3.24;100.00
58769;BME280;44536;47.474;19.056;2023-04-10T04:51:47;101222.56;;;3.31;100.00
58769;BME280;44536;47.474;19.056;2023-04-10T04:54:51;101215.91;;;3.47;100.00
58769;BME280;44536;47.474;19.056;2023-04-10T04:57:54;101236.75;;;3.77;100.00
58769;BME280;44536;47.474;19.056;2023-04-10T05:00:56;101226.13;;;4.29;100.00
58769;BME280;44536;47.474;19.056;2023-04-10T05:03:59;101220.69;;;4.59;100.00
58769;BME280;44536;47.474;19.056;2023-04-10T05:07:04;101231.38;;;4.99;100.00
58769;BME280;44536;47.474;19.056;2023-04-10T05:10:07;101233.50;;;5.33;100.00
58769;BME280;44536;47.474;19.056;2023-04-10T05:13:11;101234.16;;;5.60;99.12
58769;BME280;44536;47.474;19.056;2023-04-10T05:16:14;101227.81;;;6.07;96.26
58769;BME280;44536;47.474;19.056;2023-04-10T05:19:19;101235.88;;;6.61;91.87
58769;BME280;44536;47.474;19.056;2023-04-10T05:22:23;101244.97;;;6.92;90.11
58769;BME280;44536;47.474;19.056;2023-04-10T05:25:25;101242.72;;;7.91;85.26
58769;BME280;44536;47.474;19.056;2023-04-10T05:28:30;101240.03;;;8.91;79.01
58769;BME280;44536;47.474;19.056;2023-04-10T05:31:32;101228.44;;;9.55;74.87
58769;BME280;44536;47.474;19.056;2023-04-10T05:34:35;101233.75;;;10.30;71.08
58769;BME280;44536;47.474;19.056;2023-04-10T05:37:40;101231.47;;;11.21;66.82
58769;BME280;44536;47.474;19.056;2023-04-10T05:40:46;101245.28;;;11.80;62.95
58769;BME280;44536;47.474;19.056;2023-04-10T05:43:51;101246.69;;;12.62;60.26
58769;BME280;44536;47.474;19.056;2023-04-10T05:46:54;101244.38;;;13.43;56.63
58769;BME280;44536;47.474;19.056;2023-04-10T05:49:56;101246.19;;;12.44;57.45
58769;BME280;44536;47.474;19.056;2023-04-10T05:52:59;101237.63;;;12.65;57.01
58769;BME280;44536;47.474;19.056;2023-04-10T05:56:01;101243.47;;;12.82;56.62
58769;BME280;44536;47.474;19.056;2023-04-10T05:59:08;101244.13;;;13.10;55.22
58769;BME280;44536;47.474;19.056;2023-04-10T06:02:12;101237.16;;;13.33;54.84
58769;BME280;44536;47.474;19.056;2023-04-10T06:05:15;101240.66;;;15.05;50.47
58769;BME280;44536;47.474;19.056;2023-04-10T06:08:18;101239.47;;;14.87;49.42
58769;BME280;44536;47.474;19.056;2023-04-10T06:11:21;101246.25;;;15.02;48.83
58769;BME280;44536;47.474;19.056;2023-04-10T06:14:24;101246.41;;;16.17;47.19
58769;BME280;44536;47.474;19.056;2023-04-10T06:17:26;101239.69;;;17.34;43.42
58769;BME280;44536;47.474;19.056;2023-04-10T06:20:29;101247.66;;;17.93;41.89
58769;BME280;44536;47.474;19.056;2023-04-10T06:23:32;101242.31;;;18.87;39.66
58769;BME280;44536;47.474;19.056;2023-04-10T06:26:34;101233.97;;;20.06;37.43
58769;BME280;44536;47.474;19.056;2023-04-10T06:29:37;101239.00;;;20.53;35.76
58769;BME280;44536;47.474;19.056;2023-04-10T06:32:39;101240.41;;;19.69;36.56
58769;BME280;44536;47.474;19.056;2023-04-10T06:35:43;101240.47;;;19.32;37.21
58769;BME280;44536;47.474;19.056;2023-04-10T06:38:45;101244.84;;;20.74;36.00
58769;BME280;44536;47.474;19.056;2023-04-10T06:41:48;101248.94;;;21.36;34.84
58769;BME280;44536;47.474;19.056;2023-04-10T06:44:52;101238.00;;;22.99;31.55
58769;BME280;44536;47.474;19.056;2023-04-10T06:47:54;101243.37;;;21.38;33.35
58769;BME280;44536;47.474;19.056;2023-04-10T06:50:57;101247.06;;;22.83;30.65
58769;BME280;44536;47.474;19.056;2023-04-10T06:54:02;101240.91;;;23.59;29.77
58769;BME280;44536;47.474;19.056;2023-04-10T06:57:04;101238.50;;;24.98;27.88
58769;BME280;44536;47.474;19.056;2023-04-10T07:00:08;101236.28;;;24.87;27.27
58769;BME280;44536;47.474;19.056;2023-04-10T07:03:10;101234.69;;;24.93;27.28
58769;BME280;44536;47.474;19.056;2023-04-10T07:06:13;101232.31;;;25.98;26.26
58769;BME280;44536;47.474;19.056;2023-04-10T07:09:15;101224.28;;;26.18;25.95
58769;BME280;44536;47.474;19.056;2023-04-10T07:12:17;101222.28;;;26.61;25.38
58769;BME280;44536;47.474;19.056;2023-04-10T07:15:19;101225.03;;;27.09;24.07
58769;BME280;44536;47.474;19.056;2023-04-10T07:18:22;101226.25;;;26.02;25.20
58769;BME280;44536;47.474;19.056;2023-04-10T07:21:24;101227.91;;;25.97;24.27
58769;BME280;44536;47.474;19.056;2023-04-10T07:24:29;101228.44;;;27.24;24.22
58769;BME280;44536;47.474;19.056;2023-04-10T07:27:32;101218.78;;;25.83;24.14
58769;BME280;44536;47.474;19.056;2023-04-10T07:30:36;101212.34;;;24.32;26.05
58769;BME280;44536;47.474;19.056;2023-04-10T07:33:38;101212.63;;;25.32;25.25
58769;BME280;44536;47.474;19.056;2023-04-10T07:36:42;101210.09;;;24.35;26.28
58769;BME280;44536;47.474;19.056;2023-04-10T07:39:47;101212.66;;;22.53;28.36
58769;BME280;44536;47.474;19.056;2023-04-10T07:42:49;101202.09;;;20.45;31.81
58769;BME280;44536;47.474;19.056;2023-04-10T07:45:55;101205.59;;;18.40;34.73
58769;BME280;44536;47.474;19.056;2023-04-10T07:48:57;101201.47;;;17.12;38.10
58769;BME280;44536;47.474;19.056;2023-04-10T07:51:59;101196.37;;;15.67;39.26
58769;BME280;44536;47.474;19.056;2023-04-10T07:55:03;101193.47;;;14.72;41.80
58769;BME280;44536;47.474;19.056;2023-04-10T07:58:05;101190.47;;;14.43;42.28
58769;BME280;44536;47.474;19.056;2023-04-10T08:01:08;101195.78;;;14.32;43.01
58769;BME280;44536;47.474;19.056;2023-04-10T08:04:10;101190.66;;;14.18;42.25
58769;BME280;44536;47.474;19.056;2023-04-10T08:07:13;101189.91;;;14.05;43.21
58769;BME280;44536;47.474;19.056;2023-04-10T08:10:15;101189.19;;;13.56;45.27
58769;BME280;44536;47.474;19.056;2023-04-10T08:13:17;101187.13;;;13.25;45.93
58769;BME280;44536;47.474;19.056;2023-04-10T08:16:24;101192.69;;;13.09;46.68
58769;BME280;44536;47.474;19.056;2023-04-10T08:19:27;101189.66;;;13.50;44.58
58769;BME280;44536;47.474;19.056;2023-04-10T08:22:29;101194.59;;;13.44;43.64
58769;BME280;44536;47.474;19.056;2023-04-10T08:25:32;101187.13;;;13.49;44.90
58769;BME280;44536;47.474;19.056;2023-04-10T08:28:34;101180.19;;;13.46;44.07
58769;BME280;44536;47.474;19.056;2023-04-10T08:31:37;101185.53;;;13.46;44.12
58769;BME280;44536;47.474;19.056;2023-04-10T08:34:41;101182.34;;;13.17;45.53
58769;BME280;44536;47.474;19.056;2023-04-10T08:37:43;101179.25;;;13.47;43.95
58769;BME280;44536;47.474;19.056;2023-04-10T08:40:54;101178.84;;;13.41;42.10
58769;BME280;44536;47.474;19.056;2023-04-10T08:43:57;101168.06;;;13.42;42.12
58769;BME280;44536;47.474;19.056;2023-04-10T08:46:59;101168.34;;;13.50;42.69
58769;BME280;44536;47.474;19.056;2023-04-10T08:50:05;101174.16;;;13.55;41.54
58769;BME280;44536;47.474;19.056;2023-04-10T08:53:11;101164.62;;;13.64;42.26
58769;BME280;44536;47.474;19.056;2023-04-10T08:56:15;101166.84;;;13.81;41.02
58769;BME280;44536;47.474;19.056;2023-04-10T08:59:19;101163.19;;;13.71;40.92
58769;BME280;44536;47.474;19.056;2023-04-10T09:02:22;101157.31;;;13.90;39.93
58769;BME280;44536;47.474;19.056;2023-04-10T09:05:26;101163.13;;;14.17;39.58
58769;BME280;44536;47.474;19.056;2023-04-10T09:08:30;101160.22;;;14.20;40.03
58769;BME280;44536;47.474;19.056;2023-04-10T09:14:55;101158.53;;;14.64;39.21
58769;BME280;44536;47.474;19.056;2023-04-10T09:18:02;101152.59;;;14.72;38.72
58769;BME280;44536;47.474;19.056;2023-04-10T09:21:12;101148.22;;;14.71;38.63
58769;BME280;44536;47.474;19.056;2023-04-10T09:24:15;101150.00;;;14.93;38.49
58769;BME280;44536;47.474;19.056;2023-04-10T09:30:41;101145.56;;;15.67;36.76
58769;BME280;44536;47.474;19.056;2023-04-10T09:33:44;101138.00;;;16.23;36.53
58769;BME280;44536;47.474;19.056;2023-04-10T09:36:55;101140.59;;;16.34;36.10
58769;BME280;44536;47.474;19.056;2023-04-10T09:39:59;101137.75;;;15.75;36.89
58769;BME280;44536;47.474;19.056;2023-04-10T09:43:18;101126.81;;;16.39;36.96
58769;BME280;44536;47.474;19.056;2023-04-10T09:46:26;101129.16;;;16.72;35.63
58769;BME280;44536;47.474;19.056;2023-04-10T09:49:46;101132.88;;;16.91;34.71
58769;BME280;44536;47.474;19.056;2023-04-10T09:52:56;101122.34;;;17.08;34.75
58769;BME280;44536;47.474;19.056;2023-04-10T09:55:59;101120.63;;;17.27;33.32
58769;BME280;44536;47.474;19.056;2023-04-10T09:59:02;101117.19;;;17.82;33.10
58769;BME280;44536;47.474;19.056;2023-04-10T10:02:06;101124.03;;;18.14;32.67
58769;BME280;44536;47.474;19.056;2023-04-10T10:05:10;101117.66;;;18.42;31.16
58769;BME280;44536;47.474;19.056;2023-04-10T10:08:13;101108.47;;;19.26;29.89
58769;BME280;44536;47.474;19.056;2023-04-10T10:11:23;101113.09;;;19.69;29.17
58769;BME280;44536;47.474;19.056;2023-04-10T10:14:26;101108.25;;;19.72;29.01
58769;BME280;44536;47.474;19.056;2023-04-10T10:17:42;101105.03;;;18.52;32.09
58769;BME280;44536;47.474;19.056;2023-04-10T10:20:47;101108.28;;;19.01;29.76
58769;BME280;44536;47.474;19.056;2023-04-10T10:23:52;101109.53;;;18.25;32.37
58769;BME280;44536;47.474;19.056;2023-04-10T10:26:57;101100.78;;;17.95;31.97
58769;BME280;44536;47.474;19.056;2023-04-10T10:30:01;101097.63;;;17.43;32.48
58769;BME280;44536;47.474;19.056;2023-04-10T10:33:23;101093.66;;;16.80;34.04
58769;BME280;44536;47.474;19.056;2023-04-10T10:36:26;101096.09;;;16.43;34.55
58769;BME280;44536;47.474;19.056;2023-04-10T10:50:03;101094.63;;;15.68;35.59
58769;BME280;44536;47.474;19.056;2023-04-10T10:53:05;101091.63;;;15.62;36.04
58769;BME280;44536;47.474;19.056;2023-04-10T11:02:44;101090.00;;;15.49;37.47
58769;BME280;44536;47.474;19.056;2023-04-10T11:05:52;101081.47;;;15.35;37.67
58769;BME280;44536;47.474;19.056;2023-04-10T11:08:57;101081.91;;;15.19;39.02
58769;BME280;44536;47.474;19.056;2023-04-10T11:11:59;101082.56;;;15.32;37.35
58769;BME280;44536;47.474;19.056;2023-04-10T11:15:02;101080.66;;;15.23;39.25
58769;BME280;44536;47.474;19.056;2023-04-10T11:18:08;101080.91;;;14.99;38.65
58769;BME280;44536;47.474;19.056;2023-04-10T11:21:21;101074.84;;;15.18;39.03
58769;BME280;44536;47.474;19.056;2023-04-10T11:24:25;101075.31;;;15.02;40.53
58769;BME280;44536;47.474;19.056;2023-04-10T11:27:45;101067.47;;;15.10;39.27
58769;BME280;44536;47.474;19.056;2023-04-10T11:30:49;101067.63;;;15.30;38.58
58769;BME280;44536;47.474;19.056;2023-04-10T11:36:54;101070.81;;;15.23;39.65
58769;BME280;44536;47.474;19.056;2023-04-10T11:40:04;101065.47;;;15.03;39.84
58769;BME280;44536;47.474;19.056;2023-04-10T11:43:13;101064.81;;;15.10;40.85
58769;BME280;44536;47.474;19.056;2023-04-10T11:46:16;101071.16;;;14.77;41.74
58769;BME280;44536;47.474;19.056;2023-04-10T11:49:20;101077.84;;;15.04;42.13
58769;BME280;44536;47.474;19.056;2023-04-10T11:52:24;101072.19;;;15.18;40.37
58769;BME280;44536;47.474;19.056;2023-04-10T11:55:36;101073.44;;;15.35;40.89
58769;BME280;44536;47.474;19.056;2023-04-10T11:58:39;101068.44;;;15.62;40.41
58769;BME280;44536;47.474;19.056;2023-04-10T12:01:41;101071.94;;;15.83;40.81
58769;BME280;44536;47.474;19.056;2023-04-10T12:04:45;101069.41;;;16.22;40.45
58769;BME280;44536;47.474;19.056;2023-04-10T12:07:48;101068.47;;;15.30;42.22
58769;BME280;44536;47.474;19.056;2023-04-10T12:10:51;101075.22;;;15.45;42.22
58769;BME280;44536;47.474;19.056;2023-04-10T12:13:55;101068.69;;;15.38;44.48
58769;BME280;44536;47.474;19.056;2023-04-10T12:16:59;101071.37;;;14.85;45.08
58769;BME280;44536;47.474;19.056;2023-04-10T12:20:02;101061.06;;;14.81;45.24
58769;BME280;44536;47.474;19.056;2023-04-10T12:23:05;101057.22;;;15.06;46.05
58769;BME280;44536;47.474;19.056;2023-04-10T12:29:12;101051.00;;;15.26;44.15
58769;BME280;44536;47.474;19.056;2023-04-10T12:32:14;101047.09;;;14.88;43.88
58769;BME280;44536;47.474;19.056;2023-04-10T12:35:17;101040.44;;;14.51;45.61
58769;BME280;44536;47.474;19.056;2023-04-10T12:38:40;101037.88;;;14.49;44.44
58769;BME280;44536;47.474;19.056;2023-04-10T12:41:43;101025.25;;;14.40;44.95
58769;BME280;44536;47.474;19.056;2023-04-10T12:44:55;101032.78;;;14.35;45.35
58769;BME280;44536;47.474;19.056;2023-04-10T12:48:00;101016.09;;;14.65;45.55
58769;BME280;44536;47.474;19.056;2023-04-10T12:51:02;101007.59;;;14.71;44.10
58769;BME280;44536;47.474;19.056;2023-04-10T12:54:05;101002.47;;;15.21;43.67
58769;BME280;44536;47.474;19.056;2023-04-10T12:57:07;100996.84;;;16.15;41.36
58769;BME280;44536;47.474;19.056;2023-04-10T13:00:15;100993.63;;;17.37;39.16
58769;BME280;44536;47.474;19.056;2023-04-10T13:03:17;100992.59;;;17.58;38.75
58769;BME280;44536;47.474;19.056;2023-04-10T13:06:20;100981.94;;;17.29;38.78
58769;BME280;44536;47.474;19.056;2023-04-10T13:09:22;100976.13;;;17.43;38.26
58769;BME280;44536;47.474;19.056;2023-04-10T13:12:25;100974.00;;;17.46;38.19
58769;BME280;44536;47.474;19.056;2023-04-10T13:15:28;100972.72;;;17.87;38.35
58769;BME280;44536;47.474;19.056;2023-04-10T13:18:30;100968.56;;;18.20;37.04
58769;BME280;44536;47.474;19.056;2023-04-10T13:21:32;100968.53;;;17.75;38.18
58769;BME280;44536;47.474;19.056;2023-04-10T13:24:35;100953.94;;;17.50;38.83
58769;BME280;44536;47.474;19.056;2023-04-10T13:27:38;100948.31;;;18.08;36.98
58769;BME280;44536;47.474;19.056;2023-04-10T13:30:41;100944.69;;;18.00;36.85
58769;BME280;44536;47.474;19.056;2023-04-10T13:33:45;100945.94;;;17.41;38.78
58769;BME280;44536;47.474;19.056;2023-04-10T13:36:49;100942.47;;;17.68;38.61
58769;BME280;44536;47.474;19.056;2023-04-10T13:39:51;100935.34;;;17.02;39.67
58769;BME280;44536;47.474;19.056;2023-04-10T13:42:54;100926.19;;;16.85;40.24
58769;BME280;44536;47.474;19.056;2023-04-10T13:45:56;100930.28;;;16.99;40.18
58769;BME280;44536;47.474;19.056;2023-04-10T13:48:59;100921.69;;;16.57;41.47
58769;BME280;44536;47.474;19.056;2023-04-10T13:52:01;100914.22;;;16.51;40.84
58769;BME280;44536;47.474;19.056;2023-04-10T13:55:05;100907.97;;;17.08;40.01
58769;BME280;44536;47.474;19.056;2023-04-10T13:58:07;100911.78;;;17.06;38.03
58769;BME280;44536;47.474;19.056;2023-04-10T14:01:09;100906.75;;;16.74;38.57
58769;BME280;44536;47.474;19.056;2023-04-10T14:04:13;100896.47;;;16.60;39.08
58769;BME280;44536;47.474;19.056;2023-04-10T14:07:17;100887.16;;;16.83;38.07
58769;BME280;44536;47.474;19.056;2023-04-10T14:10:20;100883.63;;;16.82;38.05
58769;BME280;44536;47.474;19.056;2023-04-10T14:13:22;100878.59;;;16.31;39.67
58769;BME280;44536;47.474;19.056;2023-04-10T14:16:25;100870.81;;;16.76;39.64
58769;BME280;44536;47.474;19.056;2023-04-10T14:19:27;100872.06;;;16.92;39.24
58769;BME280;44536;47.474;19.056;2023-04-10T14:22:29;100866.16;;;16.78;38.90
58769;BME280;44536;47.474;19.056;2023-04-10T14:25:32;100859.28;;;16.37;38.65
58769;BME280;44536;47.474;19.056;2023-04-10T14:28:35;100851.69;;;16.13;39.52
58769;BME280;44536;47.474;19.056;2023-04-10T14:31:38;100846.03;;;16.16;40.73
58769;BME280;44536;47.474;19.056;2023-04-10T14:34:58;100839.53;;;16.67;40.07
58769;BME280;44536;47.474;19.056;2023-04-10T14:38:00;100838.97;;;16.73;38.31
58769;BME280;44536;47.474;19.056;2023-04-10T14:41:03;100836.28;;;16.64;38.33
58769;BME280;44536;47.474;19.056;2023-04-10T14:44:06;100838.66;;;16.76;38.53
58769;BME280;44536;47.474;19.056;2023-04-10T14:47:08;100830.09;;;16.73;38.72
58769;BME280;44536;47.474;19.056;2023-04-10T14:50:11;100829.81;;;16.57;38.44
58769;BME280;44536;47.474;19.056;2023-04-10T14:53:14;100826.19;;;16.19;38.76
58769;BME280;44536;47.474;19.056;2023-04-10T14:56:16;100813.22;;;15.76;39.49
58769;BME280;44536;47.474;19.056;2023-04-10T14:59:19;100812.84;;;16.00;40.51
58769;BME280;44536;47.474;19.056;2023-04-10T15:02:21;100815.34;;;15.82;40.62
58769;BME280;44536;47.474;19.056;2023-04-10T15:05:25;100812.25;;;15.77;42.13
58769;BME280;44536;47.474;19.056;2023-04-10T15:08:28;100804.09;;;15.78;40.49
58769;BME280;44536;47.474;19.056;2023-04-10T15:11:31;100801.25;;;15.70;40.04
58769;BME280;44536;47.474;19.056;2023-04-10T15:14:33;100802.41;;;15.87;38.76
58769;BME280;44536;47.474;19.056;2023-04-10T15:17:35;100794.72;;;15.44;39.82
58769;BME280;44536;47.474;19.056;2023-04-10T15:20:38;100791.47;;;15.31;41.19
58769;BME280;44536;47.474;19.056;2023-04-10T15:23:40;100788.25;;;14.97;41.61
58769;BME280;44536;47.474;19.056;2023-04-10T15:26:43;100779.75;;;14.82;41.80
58769;BME280;44536;47.474;19.056;2023-04-10T15:29:47;100780.69;;;14.71;43.24
58769;BME280;44536;47.474;19.056;2023-04-10T15:32:49;100776.28;;;14.61;42.31
58769;BME280;44536;47.474;19.056;2023-04-10T15:35:52;100769.41;;;14.88;43.13
58769;BME280;44536;47.474;19.056;2023-04-10T15:38:54;100765.50;;;15.02;41.32
58769;BME280;44536;47.474;19.056;2023-04-10T15:41:57;100772.31;;;15.26;41.25
58769;BME280;44536;47.474;19.056;2023-04-10T15:45:02;100766.72;;;15.38;40.77
58769;BME280;44536;47.474;19.056;2023-04-10T15:48:04;100765.69;;;15.20;41.56
58769;BME280;44536;47.474;19.056;2023-04-10T15:51:07;100762.97;;;15.01;41.18
58769;BME280;44536;47.474;19.056;2023-04-10T15:54:09;100764.62;;;14.92;42.33
58769;BME280;44536;47.474;19.056;2023-04-10T15:57:12;100754.94;;;14.91;41.90
58769;BME280;44536;47.474;19.056;2023-04-10T16:00:14;100759.59;;;15.08;41.87
58769;BME280;44536;47.474;19.056;2023-04-10T16:03:17;100757.72;;;15.39;41.14
58769;BME280;44536;47.474;19.056;2023-04-10T16:06:19;100754.41;;;15.57;41.18
58769;BME280;44536;47.474;19.056;2023-04-10T16:09:22;100750.75;;;15.58;40.64
58769;BME280;44536;47.474;19.056;2023-04-10T16:12:27;100741.16;;;15.45;40.93
58769;BME280;44536;47.474;19.056;2023-04-10T16:15:32;100744.50;;;15.38;40.97
58769;BME280;44536;47.474;19.056;2023-04-10T16:18:35;100735.78;;;15.36;40.52
58769;BME280;44536;47.474;19.056;2023-04-10T16:21:37;100738.03;;;15.31;40.32
58769;BME280;44536;47.474;19.056;2023-04-10T16:24:40;100736.91;;;15.33;40.73
58769;BME280;44536;47.474;19.056;2023-04-10T16:27:42;100738.56;;;15.24;40.29
58769;BME280;44536;47.474;19.056;2023-04-10T16:30:45;100728.69;;;15.15;40.73
58769;BME280;44536;47.474;19.056;2023-04-10T16:33:47;100729.38;;;14.98;42.34
58769;BME280;44536;47.474;19.056;2023-04-10T16:36:49;100731.34;;;14.96;41.77